createdAt,value
2023-01-29T00:00:10.149Z,1.92
2023-01-29T00:02:39.724Z,1.81
2023-01-29T00:05:26.046Z,1.74
2023-01-29T00:07:55.303Z,1.82
2023-01-29T00:10:24.264Z,1.87
2023-01-29T00:12:51.871Z,1.77
2023-01-29T00:15:19.195Z,1.66
2023-01-29T00:17:46.685Z,1.59
2023-01-29T00:20:14.347Z,1.50
2023-01-29T00:22:41.718Z,1.52
2023-01-29T00:25:09.630Z,1.54
2023-01-29T00:27:37.399Z,1.57
2023-01-29T00:30:12.981Z,1.62
2023-01-29T00:32:40.799Z,1.64
2023-01-29T00:35:09.098Z,1.64
2023-01-29T00:37:36.454Z,1.66
2023-01-29T00:40:05.228Z,1.70
2023-01-29T00:42:51.001Z,1.72
2023-01-29T00:45:18.563Z,1.75
2023-01-29T00:47:45.818Z,1.78
2023-01-29T00:50:13.277Z,1.74
2023-01-29T00:52:41.164Z,1.66
2023-01-29T00:55:10.355Z,1.59
2023-01-29T00:57:37.972Z,1.66
2023-01-29T01:00:09.421Z,1.75
2023-01-29T01:02:59.330Z,1.62
2023-01-29T01:05:27.736Z,1.49
2023-01-29T01:07:57.357Z,1.66
2023-01-29T01:10:31.337Z,1.52
2023-01-29T01:12:58.617Z,1.50
2023-01-29T01:15:29.612Z,1.50
2023-01-29T01:17:59.502Z,1.51
2023-01-29T01:20:29.350Z,1.51
2023-01-29T01:22:56.649Z,1.34
2023-01-29T01:25:24.591Z,1.30
2023-01-29T01:30:26.633Z,1.33
2023-01-29T01:32:54.524Z,1.27
2023-01-29T01:35:21.654Z,1.25
2023-01-29T01:37:49.371Z,1.18
2023-01-29T01:40:22.220Z,1.23
2023-01-29T01:42:51.066Z,1.21
2023-01-29T01:45:29.126Z,1.16
2023-01-29T01:48:13.094Z,1.19
2023-01-29T01:50:51.060Z,1.13
2023-01-29T01:53:26.200Z,1.09
2023-01-29T01:56:02.362Z,1.16
2023-01-29T01:58:33.324Z,1.24
2023-01-29T02:01:01.208Z,1.19
2023-01-29T02:03:48.116Z,1.24
2023-01-29T02:06:33.828Z,1.24
2023-01-29T02:09:31.189Z,1.32
2023-01-29T02:11:58.606Z,1.41
2023-01-29T02:14:25.853Z,1.38
2023-01-29T02:16:53.375Z,1.37
2023-01-29T02:19:29.836Z,1.42
2023-01-29T02:22:07.049Z,1.40
2023-01-29T02:24:40.579Z,1.37
2023-01-29T02:27:46.180Z,1.38
2023-01-29T02:30:34.276Z,1.31
2023-01-29T02:33:09.350Z,1.28
2023-01-29T02:35:46.657Z,1.28
2023-01-29T02:38:17.977Z,1.31
2023-01-29T02:40:50.423Z,1.24
2023-01-29T02:43:29.729Z,1.30
2023-01-29T02:46:05.243Z,1.34
2023-01-29T02:48:46.383Z,1.29
2023-01-29T02:51:49.765Z,1.21
2023-01-29T02:54:48.833Z,1.22
2023-01-29T02:57:30.064Z,1.09
2023-01-29T03:00:14.203Z,1.05
2023-01-29T03:02:58.765Z,1.03
2023-01-29T03:05:31.455Z,1.04
2023-01-29T03:08:03.098Z,1.00
2023-01-29T03:10:35.701Z,1.04
2023-01-29T03:13:29.775Z,1.05
2023-01-29T03:16:05.071Z,1.13
2023-01-29T03:18:43.613Z,1.10
2023-01-29T03:21:48.658Z,1.15
2023-01-29T03:24:37.565Z,1.22
2023-01-29T03:27:27.408Z,1.41
2023-01-29T03:30:15.077Z,1.42
2023-01-29T03:32:44.998Z,1.41
2023-01-29T03:35:14.624Z,1.43
2023-01-29T03:37:46.161Z,1.47
2023-01-29T03:40:14.397Z,1.45
2023-01-29T03:43:03.994Z,1.43
2023-01-29T03:45:58.747Z,1.44
2023-01-29T03:48:37.418Z,1.45
2023-01-29T03:51:16.842Z,1.49
2023-01-29T03:54:04.286Z,1.53
2023-01-29T03:57:02.313Z,1.39
2023-01-29T03:59:39.824Z,1.45
2023-01-29T04:02:27.928Z,1.36
2023-01-29T04:04:59.163Z,1.34
2023-01-29T04:07:29.701Z,1.50
2023-01-29T04:10:09.508Z,1.55
2023-01-29T04:12:41.370Z,1.33
2023-01-29T04:15:11.888Z,1.40
2023-01-29T04:17:40.726Z,1.42
2023-01-29T04:20:09.694Z,1.41
2023-01-29T04:22:38.800Z,1.36
2023-01-29T04:25:15.800Z,1.47
2023-01-29T04:28:22.137Z,1.30
2023-01-29T04:31:04.241Z,1.41
2023-01-29T04:33:36.215Z,1.39
2023-01-29T04:36:23.610Z,1.47
2023-01-29T04:39:17.519Z,1.41
2023-01-29T04:42:11.079Z,1.36
2023-01-29T04:45:09.138Z,1.56
2023-01-29T04:48:00.408Z,1.30
2023-01-29T04:50:56.988Z,1.41
2023-01-29T04:53:48.504Z,1.47
2023-01-29T04:56:27.395Z,1.17
2023-01-29T04:59:07.876Z,1.19
2023-01-29T05:01:35.927Z,1.39
2023-01-29T05:04:06.868Z,1.43
2023-01-29T05:06:35.912Z,1.47
2023-01-29T05:09:03.960Z,1.50
2023-01-29T05:11:32.750Z,1.54
2023-01-29T05:14:02.801Z,1.40
2023-01-29T05:16:41.867Z,1.35
2023-01-29T05:19:10.496Z,1.42
2023-01-29T05:21:41.029Z,1.41
2023-01-29T05:24:20.443Z,1.36
2023-01-29T05:27:08.298Z,1.21
2023-01-29T05:29:35.514Z,1.32
2023-01-29T05:32:04.067Z,1.29
2023-01-29T05:34:31.205Z,1.24
2023-01-29T05:36:58.267Z,1.30
2023-01-29T05:39:25.702Z,1.36
2023-01-29T05:41:52.787Z,1.31
2023-01-29T05:44:20.526Z,1.37
2023-01-29T05:46:47.990Z,1.42
2023-01-29T05:49:17.742Z,1.36
2023-01-29T05:51:44.906Z,1.28
2023-01-29T05:54:12.928Z,0.99
2023-01-29T05:56:40.514Z,1.16
2023-01-29T05:59:07.734Z,1.22
2023-01-29T06:01:35.217Z,1.23
2023-01-29T06:04:02.790Z,1.31
2023-01-29T06:06:29.883Z,1.34
2023-01-29T06:08:57.000Z,1.32
2023-01-29T06:11:24.705Z,1.40
2023-01-29T06:13:51.875Z,1.34
2023-01-29T06:16:18.968Z,1.31
2023-01-29T06:18:46.328Z,1.27
2023-01-29T06:21:14.205Z,1.25
2023-01-29T06:23:41.364Z,1.05
2023-01-29T06:26:11.223Z,0.96
2023-01-29T06:28:38.590Z,1.04
2023-01-29T06:31:37.214Z,0.97
2023-01-29T06:33:54.395Z,1.04
2023-01-29T06:36:21.645Z,1.04
2023-01-29T06:38:48.828Z,1.10
2023-01-29T06:41:22.726Z,1.17
2023-01-29T06:43:49.880Z,1.13
2023-01-29T06:46:17.568Z,1.19
2023-01-29T06:48:44.740Z,1.21
2023-01-29T06:51:12.192Z,1.16
2023-01-29T06:53:40.015Z,1.14
2023-01-29T06:56:08.165Z,1.30
2023-01-29T06:58:38.826Z,0.97
2023-01-29T07:01:17.513Z,0.86
2023-01-29T07:03:52.485Z,0.80
2023-01-29T07:06:20.230Z,0.89
2023-01-29T07:08:47.373Z,0.75
2023-01-29T07:11:14.592Z,0.81
2023-01-29T07:13:42.022Z,0.85
2023-01-29T07:16:09.776Z,0.71
2023-01-29T07:18:37.462Z,0.70
2023-01-29T07:21:06.902Z,0.63
2023-01-29T07:23:35.020Z,0.66
2023-01-29T07:26:06.214Z,0.88
2023-01-29T07:28:40.563Z,0.98
2023-01-29T07:31:08.588Z,0.97
2023-01-29T07:33:35.990Z,0.78
2023-01-29T07:36:07.751Z,0.89
2023-01-29T07:38:34.991Z,1.03
2023-01-29T07:41:03.368Z,1.22
2023-01-29T07:43:30.743Z,1.20
2023-01-29T07:46:01.779Z,1.25
2023-01-29T07:48:29.275Z,1.14
2023-01-29T07:50:57.169Z,1.08
2023-01-29T07:53:24.644Z,0.94
2023-01-29T07:55:52.100Z,1.01
2023-01-29T07:58:19.220Z,1.14
2023-01-29T08:00:46.400Z,1.05
2023-01-29T08:03:16.361Z,1.21
2023-01-29T08:05:44.665Z,1.30
2023-01-29T08:08:12.153Z,1.38
2023-01-29T08:10:40.277Z,1.07
2023-01-29T08:13:07.776Z,1.16
2023-01-29T08:18:22.774Z,1.25
2023-01-29T08:20:49.850Z,1.25
2023-01-29T08:23:17.009Z,1.34
2023-01-29T08:25:44.722Z,1.45
2023-01-29T08:28:12.419Z,1.36
2023-01-29T08:30:39.898Z,1.15
2023-01-29T08:33:07.299Z,1.03
2023-01-29T08:35:34.461Z,1.17
2023-01-29T08:38:03.414Z,1.33
2023-01-29T08:40:33.061Z,1.16
2023-01-29T08:43:06.275Z,1.37
2023-01-29T08:45:36.996Z,1.49
2023-01-29T08:48:04.404Z,1.43
2023-01-29T08:50:32.401Z,0.94
2023-01-29T08:53:00.892Z,0.99
2023-01-29T08:55:28.679Z,0.99
2023-01-29T08:57:57.382Z,1.07
2023-01-29T09:00:24.992Z,1.19
2023-01-29T09:02:52.171Z,0.96
2023-01-29T09:05:19.699Z,1.09
2023-01-29T09:07:47.281Z,1.24
2023-01-29T09:10:14.399Z,1.25
2023-01-29T09:12:41.477Z,1.31
2023-01-29T09:15:09.484Z,1.14
2023-01-29T09:17:36.643Z,0.94
2023-01-29T09:20:06.159Z,0.98
2023-01-29T09:22:33.766Z,0.98
2023-01-29T09:25:00.977Z,1.07
2023-01-29T09:27:28.273Z,1.02
2023-01-29T09:29:55.674Z,1.13
2023-01-29T09:32:49.749Z,1.06
2023-01-29T09:35:10.580Z,1.16
2023-01-29T09:37:37.732Z,1.15
2023-01-29T09:40:05.419Z,1.13
2023-01-29T09:42:36.152Z,0.92
2023-01-29T09:45:10.678Z,1.00
2023-01-29T09:47:38.225Z,1.03
2023-01-29T09:50:19.085Z,1.11
2023-01-29T09:52:53.114Z,1.02
2023-01-29T09:55:32.615Z,1.00
2023-01-29T09:58:04.105Z,1.03
2023-01-29T10:00:34.685Z,1.15
2023-01-29T10:03:14.397Z,1.20
2023-01-29T10:06:03.452Z,1.09
2023-01-29T10:08:41.036Z,1.29
2023-01-29T10:11:36.125Z,1.16
2023-01-29T10:14:20.783Z,1.18
2023-01-29T10:17:12.249Z,1.14
2023-01-29T10:20:17.260Z,1.29
2023-01-29T10:22:56.517Z,1.03
2023-01-29T10:25:24.276Z,1.14
2023-01-29T10:27:53.612Z,1.15
2023-01-29T10:30:32.847Z,0.97
2023-01-29T10:33:05.665Z,0.97
2023-01-29T10:35:41.736Z,0.89
2023-01-29T10:38:27.865Z,0.95
2023-01-29T10:41:11.986Z,0.88
2023-01-29T10:44:03.111Z,0.84
2023-01-29T10:47:04.626Z,0.66
2023-01-29T10:49:41.179Z,0.63
2023-01-29T10:52:22.572Z,0.64
2023-01-29T10:55:04.015Z,0.70
2023-01-29T10:57:50.067Z,0.57
2023-01-29T11:00:26.727Z,0.65
2023-01-29T11:02:53.979Z,0.88
2023-01-29T11:05:25.778Z,1.13
2023-01-29T11:08:23.583Z,1.25
2023-01-29T11:11:06.301Z,0.97
2023-01-29T11:13:38.884Z,0.77
2023-01-29T11:16:07.184Z,1.01
2023-01-29T11:18:50.651Z,0.86
2023-01-29T11:21:19.692Z,0.78
2023-01-29T11:23:47.018Z,0.69
2023-01-29T11:26:18.661Z,0.73
2023-01-29T11:28:48.854Z,0.60
2023-01-29T11:31:27.268Z,0.70
2023-01-29T11:34:21.864Z,0.80
2023-01-29T11:36:58.922Z,0.82
2023-01-29T11:39:27.777Z,1.09
2023-01-29T11:42:05.151Z,1.18
2023-01-29T11:44:41.973Z,1.21
2023-01-29T11:47:12.623Z,1.44
2023-01-29T11:49:45.605Z,1.42
2023-01-29T11:52:14.041Z,1.52
2023-01-29T11:54:49.023Z,1.39
2023-01-29T11:57:31.496Z,1.31
2023-01-29T12:00:06.660Z,1.35
2023-01-29T12:02:46.257Z,1.32
2023-01-29T12:05:18.800Z,1.44
2023-01-29T12:07:51.376Z,1.56
2023-01-29T12:10:35.872Z,1.51
2023-01-29T12:13:07.665Z,1.57
2023-01-29T12:15:35.751Z,1.77
2023-01-29T12:18:21.728Z,1.56
2023-01-29T12:21:05.656Z,1.50
2023-01-29T12:23:45.060Z,1.48
2023-01-29T12:26:19.689Z,1.08
2023-01-29T12:29:08.168Z,1.19
2023-01-29T12:32:02.370Z,1.03
2023-01-29T12:34:48.594Z,0.81
2023-01-29T12:37:28.108Z,0.72
2023-01-29T12:39:55.365Z,0.73
2023-01-29T12:42:23.814Z,0.98
2023-01-29T12:44:57.898Z,1.04
2023-01-29T12:47:28.365Z,1.12
2023-01-29T12:49:58.354Z,1.01
2023-01-29T12:52:41.645Z,1.00
2023-01-29T12:55:37.543Z,1.16
2023-01-29T12:58:24.352Z,1.33
2023-01-29T13:00:54.753Z,1.28
2023-01-29T13:03:46.464Z,1.27
2023-01-29T13:06:17.029Z,1.30
2023-01-29T13:09:04.833Z,1.35
2023-01-29T13:11:39.496Z,1.21
2023-01-29T13:14:08.724Z,1.36
2023-01-29T13:16:43.927Z,1.43
2023-01-29T13:19:24.346Z,1.50
2023-01-29T13:21:52.204Z,1.39
2023-01-29T13:24:22.111Z,0.98
2023-01-29T13:26:49.929Z,0.73
2023-01-29T13:29:28.822Z,0.61
2023-01-29T13:31:58.574Z,0.55
2023-01-29T13:34:28.585Z,0.56
2023-01-29T13:36:58.700Z,0.59
2023-01-29T13:39:55.624Z,0.48
2023-01-29T13:42:37.499Z,0.44
2023-01-29T13:45:07.265Z,0.54
2023-01-29T13:47:40.104Z,0.77
2023-01-29T13:50:08.350Z,0.94
2023-01-29T13:52:43.038Z,1.11
2023-01-29T13:55:19.944Z,1.10
2023-01-29T13:57:47.657Z,0.94
2023-01-29T14:00:20.633Z,0.89
2023-01-29T14:03:14.088Z,0.76
2023-01-29T14:05:56.831Z,0.69
2023-01-29T14:08:37.828Z,0.81
2023-01-29T14:11:17.107Z,1.02
2023-01-29T14:13:49.164Z,0.98
2023-01-29T14:16:16.281Z,1.05
2023-01-29T14:18:48.180Z,1.24
2023-01-29T14:21:34.382Z,1.31
2023-01-29T14:24:21.577Z,0.97
2023-01-29T14:26:54.618Z,0.53
2023-01-29T14:29:34.397Z,0.46
2023-01-29T14:32:19.677Z,0.38
2023-01-29T14:35:22.051Z,0.41
2023-01-29T14:37:55.264Z,0.74
2023-01-29T14:40:24.306Z,0.80
2023-01-29T14:43:01.979Z,0.79
2023-01-29T14:45:34.161Z,0.93
2023-01-29T14:48:17.610Z,1.12
2023-01-29T14:50:56.544Z,1.12
2023-01-29T14:53:31.977Z,1.17
2023-01-29T14:56:05.401Z,1.22
2023-01-29T14:58:43.971Z,1.30
2023-01-29T15:01:28.516Z,1.29
2023-01-29T15:04:19.192Z,1.22
2023-01-29T15:06:48.443Z,1.26
2023-01-29T15:10:13.533Z,1.15
2023-01-29T15:12:52.821Z,0.45
2023-01-29T15:15:56.547Z,0.25
2023-01-29T15:18:46.410Z,0.23
2023-01-29T15:21:16.351Z,0.03
2023-01-29T15:23:44.561Z,0.02
2023-01-29T15:26:24.705Z,0.07
2023-01-29T15:29:04.259Z,0.13
2023-01-29T15:31:32.327Z,0.30
2023-01-29T15:34:04.814Z,0.42
2023-01-29T15:36:32.427Z,0.42
2023-01-29T15:39:11.976Z,0.53
2023-01-29T15:41:39.153Z,0.60
2023-01-29T15:44:21.037Z,0.68
2023-01-29T15:46:56.634Z,0.68
2023-01-29T15:49:30.475Z,0.75
2023-01-29T15:52:04.743Z,0.80
2023-01-29T15:54:32.973Z,0.86
2023-01-29T15:57:01.006Z,0.64
2023-01-29T15:59:34.672Z,0.59
2023-01-29T16:02:35.971Z,0.60
2023-01-29T16:05:05.318Z,0.52
2023-01-29T16:07:32.780Z,0.43
2023-01-29T16:10:00.456Z,0.37
2023-01-29T16:12:28.297Z,0.41
2023-01-29T16:14:55.590Z,0.28
2023-01-29T16:17:23.525Z,0.30
2023-01-29T16:20:01.907Z,0.26
2023-01-29T16:22:36.844Z,0.16
2023-01-29T16:25:12.486Z,0.11
2023-01-29T16:27:43.270Z,0.23
2023-01-29T16:30:15.358Z,0.27
2023-01-29T16:32:42.495Z,0.23
2023-01-29T16:35:15.469Z,0.26
2023-01-29T16:37:47.772Z,0.29
2023-01-29T16:40:37.940Z,0.34
2023-01-29T16:43:17.562Z,0.13
2023-01-29T16:46:03.084Z,0.23
2023-01-29T16:48:34.797Z,0.13
2023-01-29T16:51:06.381Z,0.21
2023-01-29T16:53:35.657Z,0.26
2023-01-29T16:56:06.667Z,0.23
2023-01-29T16:58:34.598Z,0.20
2023-01-29T17:01:04.422Z,0.15
2023-01-29T17:03:33.966Z,0.20
2023-01-29T17:06:17.368Z,0.26
2023-01-29T17:08:44.623Z,0.29
2023-01-29T17:11:14.320Z,0.25
2023-01-29T17:13:44.912Z,0.18
2023-01-29T17:16:37.671Z,0.12
2023-01-29T17:19:17.759Z,0.09
2023-01-29T17:21:45.498Z,0.12
2023-01-29T17:24:12.593Z,0.10
2023-01-29T17:26:40.118Z,0.11
2023-01-29T17:29:13.146Z,0.11
2023-01-29T17:31:40.670Z,0.19
2023-01-29T17:34:17.847Z,0.14
2023-01-29T17:36:45.316Z,0.12
2023-01-29T17:39:19.753Z,0.19
2023-01-29T17:41:57.693Z,0.16
2023-01-29T17:44:28.421Z,0.10
2023-01-29T17:46:55.641Z,0.03
2023-01-29T17:49:28.100Z,0.10
2023-01-29T17:51:56.910Z,0.07
2023-01-29T17:54:25.650Z,-0.20
2023-01-29T17:56:53.448Z,-0.15
2023-01-29T17:59:22.923Z,-0.07
2023-01-29T18:01:50.791Z,-0.03
2023-01-29T18:04:18.293Z,-0.05
2023-01-29T18:06:47.879Z,-0.02
2023-01-29T18:09:16.433Z,-0.12
2023-01-29T18:11:43.937Z,-0.14
2023-01-29T18:14:14.256Z,-0.20
2023-01-29T18:16:43.515Z,-0.27
2023-01-29T18:19:22.528Z,-0.31
2023-01-29T18:21:50.404Z,-0.24
2023-01-29T18:24:18.746Z,-0.21
2023-01-29T18:26:46.929Z,-0.34
2023-01-29T18:29:14.286Z,-0.30
2023-01-29T18:31:41.775Z,-0.37
2023-01-29T18:34:09.032Z,-0.45
2023-01-29T18:36:36.217Z,-0.46
2023-01-29T18:39:03.736Z,-0.44
2023-01-29T18:41:31.069Z,-0.66
2023-01-29T18:43:58.256Z,-0.83
2023-01-29T18:46:25.844Z,-0.65
2023-01-29T18:48:53.093Z,-0.80
2023-01-29T18:51:20.284Z,-0.87
2023-01-29T18:53:51.408Z,-0.83
2023-01-29T18:56:19.861Z,-0.91
2023-01-29T18:58:52.018Z,-0.96
2023-01-29T19:01:23.656Z,-0.95
2023-01-29T19:03:50.848Z,-0.94
2023-01-29T19:06:17.952Z,-0.90
2023-01-29T19:08:47.350Z,-0.91
2023-01-29T19:11:14.612Z,-0.91
2023-01-29T19:13:44.916Z,-0.98
2023-01-29T19:16:13.564Z,-0.87
2023-01-29T19:18:40.808Z,-0.68
2023-01-29T19:21:10.510Z,-0.66
2023-01-29T19:23:38.585Z,-0.65
2023-01-29T19:26:05.964Z,-0.69
2023-01-29T19:28:33.726Z,-0.74
2023-01-29T19:31:01.316Z,-0.86
2023-01-29T19:33:28.721Z,-0.83
2023-01-29T19:35:56.954Z,-0.96
2023-01-29T19:38:24.471Z,-1.04
2023-01-29T19:40:52.229Z,-1.14
2023-01-29T19:43:19.457Z,-1.17
2023-01-29T19:45:53.583Z,-1.15
2023-01-29T19:48:21.760Z,-1.27
2023-01-29T19:50:57.417Z,-1.30
2023-01-29T19:53:25.452Z,-1.25
2023-01-29T19:56:05.246Z,-1.20
2023-01-29T19:58:33.049Z,-1.27
2023-01-29T20:01:02.973Z,-1.30
2023-01-29T20:03:30.915Z,-1.30
2023-01-29T20:06:05.879Z,-1.32
2023-01-29T20:08:34.041Z,-1.33
2023-01-29T20:11:02.131Z,-1.37
2023-01-29T20:13:29.928Z,-1.34
2023-01-29T20:15:57.459Z,-1.45
2023-01-29T20:18:24.685Z,-1.44
2023-01-29T20:20:53.120Z,-1.48
2023-01-29T20:23:37.721Z,-1.48
2023-01-29T20:26:13.379Z,-1.49
2023-01-29T20:28:41.009Z,-1.44
2023-01-29T20:31:09.425Z,-1.53
2023-01-29T20:33:39.556Z,-1.58
2023-01-29T20:36:10.080Z,-1.57
2023-01-29T20:38:37.726Z,-1.69
2023-01-29T20:41:10.886Z,-1.76
2023-01-29T20:43:38.400Z,-1.73
2023-01-29T20:46:05.637Z,-1.74
2023-01-29T20:48:33.157Z,-1.68
2023-01-29T20:51:05.363Z,-1.70
2023-01-29T20:53:32.678Z,-1.66
2023-01-29T20:55:59.856Z,-1.63
2023-01-29T20:58:27.505Z,-1.65
2023-01-29T21:00:54.631Z,-1.63
2023-01-29T21:03:21.759Z,-1.60
2023-01-29T21:05:50.271Z,-1.60
2023-01-29T21:08:17.399Z,-1.57
2023-01-29T21:10:45.412Z,-1.49
2023-01-29T21:13:12.884Z,-1.43
2023-01-29T21:15:41.886Z,-1.42
2023-01-29T21:18:08.941Z,-1.46
2023-01-29T21:20:36.696Z,-1.49
2023-01-29T21:23:06.846Z,-1.57
2023-01-29T21:25:34.434Z,-1.49
2023-01-29T21:28:04.301Z,-1.51
2023-01-29T21:30:31.696Z,-1.48
2023-01-29T21:32:58.788Z,-1.48
2023-01-29T21:35:26.186Z,-1.60
2023-01-29T21:37:53.252Z,-1.61
2023-01-29T21:40:25.154Z,-1.63
2023-01-29T21:43:11.578Z,-1.60
2023-01-29T21:45:39.656Z,-1.58
2023-01-29T21:48:07.734Z,-1.63
2023-01-29T21:50:34.927Z,-1.64
2023-01-29T21:53:02.251Z,-1.48
2023-01-29T21:55:29.707Z,-1.52
2023-01-29T21:57:56.835Z,-1.64
2023-01-29T22:00:24.070Z,-1.59
2023-01-29T22:02:51.531Z,-1.44
2023-01-29T22:05:20.181Z,-1.59
2023-01-29T22:07:49.183Z,-1.71
2023-01-29T22:10:17.994Z,-1.82
2023-01-29T22:12:45.571Z,-1.80
2023-01-29T22:15:13.108Z,-1.82
2023-01-29T22:17:41.521Z,-1.89
2023-01-29T22:20:13.516Z,-1.96
2023-01-29T22:22:40.945Z,-1.93
2023-01-29T22:25:08.819Z,-1.80
2023-01-29T22:27:35.960Z,-1.75
2023-01-29T22:30:04.568Z,-1.74
2023-01-29T22:32:32.343Z,-1.78
2023-01-29T22:34:59.527Z,-1.74
2023-01-29T22:37:27.008Z,-1.78
2023-01-29T22:39:54.158Z,-1.72
2023-01-29T22:42:21.343Z,-1.75
2023-01-29T22:44:48.833Z,-1.69
2023-01-29T22:47:16.274Z,-1.67
2023-01-29T22:49:45.542Z,-1.83
2023-01-29T22:52:13.812Z,-1.86
2023-01-29T22:54:42.569Z,-1.93
2023-01-29T22:57:14.071Z,-1.93
2023-01-29T22:59:41.569Z,-1.92
2023-01-29T23:02:09.361Z,-1.96
2023-01-29T23:04:37.034Z,-1.94
2023-01-29T23:07:04.475Z,-1.83
2023-01-29T23:09:31.545Z,-1.76
2023-01-29T23:11:58.703Z,-1.78
2023-01-29T23:14:26.187Z,-1.77
2023-01-29T23:16:53.337Z,-1.74
2023-01-29T23:19:20.597Z,-1.80
2023-01-29T23:21:48.091Z,-1.76
2023-01-29T23:24:15.522Z,-1.88
2023-01-29T23:27:01.051Z,-1.83
2023-01-29T23:29:28.703Z,-1.78
2023-01-29T23:31:55.915Z,-1.88
2023-01-29T23:34:23.056Z,-1.75
2023-01-29T23:36:50.507Z,-1.70
2023-01-29T23:39:17.724Z,-1.61
2023-01-29T23:41:44.932Z,-1.51
2023-01-29T23:44:12.597Z,-1.51
2023-01-29T23:46:40.205Z,-1.40
2023-01-29T23:49:07.709Z,-1.51
2023-01-29T23:51:35.181Z,-1.37
2023-01-29T23:54:02.334Z,-1.26
2023-01-29T23:56:29.537Z,-1.49
2023-01-29T23:58:57.835Z,-1.55
